Time;durP1;ratioP1;P1;durP2;ratioP2;P2;SDS_P1;SDS_P2;PMS_P1;PMS_P2;Temp;Humidity;BMP_temperature;BMP_pressure;BME280_temperature;BME280_humidity;BME280_pressure;Samples;Min_cycle;Max_cycle;Signal;HPM_P1;HPM_P2
2022/03/03 00:01:35;;;;;;;69.93;28.10;;;;;;;18.82;38.13;100911.16;4983186;28;20030;-40
2022/03/03 00:04:01;;;;;;;69.68;27.40;;;;;;;18.81;38.11;100923.53;4984925;28;20441;-40
2022/03/03 00:06:26;;;;;;;76.93;27.55;;;;;;;18.80;38.00;100924.53;4984175;28;20442;-40
2022/03/03 00:08:51;;;;;;;75.78;28.23;;;;;;;18.79;38.04;100927.38;4984766;28;20158;-40
2022/03/03 00:11:17;;;;;;;69.63;26.85;;;;;;;18.78;37.90;100928.38;4978450;28;20093;-41
2022/03/03 00:13:42;;;;;;;76.10;28.15;;;;;;;18.76;37.96;100925.91;4985310;28;20109;-40
2022/03/03 00:16:08;;;;;;;71.68;28.70;;;;;;;18.76;37.84;100925.91;4983768;28;20545;-41
2022/03/03 00:18:33;;;;;;;73.25;27.33;;;;;;;18.74;37.94;100922.66;4983197;28;20156;-40
2022/03/03 00:20:59;;;;;;;77.25;29.25;;;;;;;18.74;37.74;100925.28;4985189;28;20038;-41
2022/03/03 00:23:24;;;;;;;76.68;28.92;;;;;;;18.73;37.68;100921.00;4983870;28;20034;-40
2022/03/03 00:25:50;;;;;;;77.93;29.58;;;;;;;18.74;37.77;100924.47;4984394;28;20136;-41
2022/03/03 00:28:15;;;;;;;74.07;29.73;;;;;;;18.72;37.80;100927.28;4983852;28;20457;-42
2022/03/03 00:30:41;;;;;;;74.63;30.00;;;;;;;18.72;37.58;100922.00;4985621;28;20045;-40
2022/03/03 00:33:06;;;;;;;69.05;28.88;;;;;;;18.71;37.67;100922.19;4984262;28;20033;-40
2022/03/03 00:35:32;;;;;;;68.90;26.63;;;;;;;18.71;37.77;100927.47;4984099;28;20046;-40
2022/03/03 00:37:57;;;;;;;74.63;28.50;;;;;;;18.70;37.71;100923.22;4984303;28;20034;-40
2022/03/03 00:40:22;;;;;;;71.40;29.55;;;;;;;18.70;37.78;100921.38;4983822;28;20034;-41
2022/03/03 00:42:48;;;;;;;70.85;29.00;;;;;;;18.70;37.76;100920.56;4984173;28;20026;-40
2022/03/03 00:45:13;;;;;;;72.50;27.70;;;;;;;18.68;37.83;100920.75;4981459;28;20358;-41
2022/03/03 00:47:39;;;;;;;72.03;28.30;;;;;;;18.68;37.92;100917.28;4984916;28;20026;-40
2022/03/03 00:50:05;;;;;;;69.50;27.73;;;;;;;18.68;37.89;100923.38;4980719;28;20026;-40
2022/03/03 00:52:30;;;;;;;66.32;29.60;;;;;;;18.67;37.97;100920.94;4984503;28;20046;-40
2022/03/03 00:54:55;;;;;;;66.50;28.45;;;;;;;18.65;37.83;100925.59;4984438;28;20445;-40
2022/03/03 00:57:21;;;;;;;67.15;28.13;;;;;;;18.65;38.20;100915.03;4988464;28;20056;-41
2022/03/03 00:59:46;;;;;;;60.70;27.38;;;;;;;18.65;37.96;100923.75;4988718;28;20117;-40
2022/03/03 01:02:12;;;;;;;66.45;29.27;;;;;;;18.63;37.97;100920.50;4988349;28;20382;-40
2022/03/03 01:04:37;;;;;;;68.72;28.50;;;;;;;18.63;37.99;100922.31;4985198;28;20552;-40
2022/03/03 01:07:05;;;;;;;68.72;29.10;;;;;;;18.62;37.81;100918.84;4986387;28;20048;-40
2022/03/03 01:09:30;;;;;;;62.58;27.42;;;;;;;18.61;37.91;100916.41;4988748;28;20333;-40
2022/03/03 01:11:55;;;;;;;57.67;25.85;;;;;;;18.60;37.70;100914.72;4986602;28;20221;-40
2022/03/03 01:14:23;;;;;;;67.97;26.77;;;;;;;18.59;37.63;100908.63;4987287;28;20030;-40
2022/03/03 01:16:50;;;;;;;61.13;26.25;;;;;;;18.58;37.56;100907.00;4984458;28;20034;-40
2022/03/03 01:19:16;;;;;;;61.38;25.83;;;;;;;18.57;37.56;100908.00;4986479;28;20038;-40
2022/03/03 01:21:41;;;;;;;61.05;25.45;;;;;;;18.56;37.59;100909.00;4986769;28;20026;-41
2022/03/03 01:24:07;;;;;;;60.42;26.30;;;;;;;18.56;37.49;100903.72;4986939;28;20223;-40
2022/03/03 01:26:32;;;;;;;59.83;25.98;;;;;;;18.54;37.54;100895.19;4988346;28;20149;-40
2022/03/03 01:28:58;;;;;;;61.65;24.88;;;;;;;18.55;37.53;100896.81;4987847;28;20044;-40
2022/03/03 01:31:23;;;;;;;55.53;25.40;;;;;;;18.53;37.50;100894.34;4989148;28;20045;-42
2022/03/03 01:33:48;;;;;;;52.35;23.73;;;;;;;18.52;37.52;100892.72;4987508;28;20570;-40
2022/03/03 01:36:14;;;;;;;54.78;24.20;;;;;;;18.51;37.60;100891.09;4987060;28;20470;-41
2022/03/03 01:38:40;;;;;;;56.30;23.77;;;;;;;18.52;37.60;100894.53;4988197;28;20034;-40
2022/03/03 01:41:07;;;;;;;56.60;23.90;;;;;;;18.51;37.66;100890.28;4988661;28;20039;-41
2022/03/03 01:43:33;;;;;;;54.55;22.45;;;;;;;18.50;37.46;100888.63;4985055;28;20061;-41
2022/03/03 01:45:58;;;;;;;52.15;21.77;;;;;;;18.50;37.52;100894.72;4988842;28;20085;-40
2022/03/03 01:48:24;;;;;;;48.72;21.70;;;;;;;18.51;37.32;100896.38;4988288;28;20133;-40
2022/03/03 01:50:49;;;;;;;48.83;22.38;;;;;;;18.50;37.33;100904.47;4988119;28;20042;-40
2022/03/03 01:53:15;;;;;;;48.58;20.88;;;;;;;18.51;37.40;100892.91;4987861;28;20030;-40
2022/03/03 01:55:41;;;;;;;47.08;21.38;;;;;;;18.49;37.37;100887.81;4988205;28;20041;-40
2022/03/03 01:58:07;;;;;;;51.03;20.48;;;;;;;18.50;37.32;100884.19;4987126;28;20447;-40
2022/03/03 02:00:32;;;;;;;45.65;19.33;;;;;;;18.50;37.26;100880.72;4987342;28;20181;-41
2022/03/03 02:03:00;;;;;;;45.08;18.98;;;;;;;18.49;37.18;100871.16;4988102;28;20113;-40
2022/03/03 02:05:27;;;;;;;46.05;18.35;;;;;;;18.48;37.21;100866.91;4986364;28;20026;-40
2022/03/03 02:07:52;;;;;;;42.50;17.65;;;;;;;18.49;37.07;100865.91;4987523;28;20138;-40
2022/03/03 02:12:53;;;;;;;42.08;18.95;;;;;;;18.46;37.01;100875.00;4881025;22;20068;-40
2022/03/03 02:15:20;;;;;;;42.67;18.00;;;;;;;18.46;37.02;100866.25;4988824;28;20046;-44
2022/03/03 02:17:46;;;;;;;37.50;16.10;;;;;;;18.46;37.06;100861.81;4987734;28;20054;-41
2022/03/03 02:20:26;;;;;;;32.75;16.17;;;;;;;18.44;37.05;100852.44;4987781;28;20422;-40
2022/03/03 02:22:53;;;;;;;35.85;16.25;;;;;;;18.43;37.31;100851.63;4988651;28;20041;-40
2022/03/03 02:25:19;;;;;;;36.67;16.45;;;;;;;18.43;37.31;100851.63;4977961;28;20030;-41
2022/03/03 02:27:45;;;;;;;37.88;16.42;;;;;;;18.43;36.86;100842.91;4986954;28;20062;-40
2022/03/03 02:30:13;;;;;;;31.27;15.15;;;;;;;18.42;36.94;100843.94;4987288;28;20072;-40
2022/03/03 02:32:40;;;;;;;34.45;15.43;;;;;;;18.41;37.08;100839.66;4989280;28;20031;-40
2022/03/03 02:35:07;;;;;;;34.78;15.20;;;;;;;18.40;37.10;100836.19;4987551;28;20040;-42
2022/03/03 02:37:34;;;;;;;31.17;14.20;;;;;;;18.39;37.07;100834.56;4986073;28;20104;-40
2022/03/03 02:40:01;;;;;;;35.17;15.30;;;;;;;18.39;37.18;100833.75;4987159;28;20396;-40
2022/03/03 02:42:26;;;;;;;31.02;13.43;;;;;;;18.38;37.04;100832.09;4988185;28;20172;-40
2022/03/03 02:44:51;;;;;;;28.50;13.27;;;;;;;18.36;37.03;100831.47;4987514;28;20556;-40
2022/03/03 02:47:17;;;;;;;28.02;12.52;;;;;;;18.36;36.95;100823.56;4988278;28;20030;-40
2022/03/03 02:49:42;;;;;;;28.70;13.70;;;;;;;18.35;36.79;100827.19;4986661;28;20039;-40
2022/03/03 02:52:08;;;;;;;28.17;12.82;;;;;;;18.34;36.95;100828.22;4982461;28;20034;-40
2022/03/03 02:54:33;;;;;;;24.95;11.38;;;;;;;18.34;36.87;100828.22;4988110;28;20724;-40
2022/03/03 02:59:42;;;;;;;25.45;11.45;;;;;;;18.32;36.69;100825.75;4986183;28;20105;-40
2022/03/03 03:02:08;;;;;;;26.48;11.88;;;;;;;18.32;36.69;100838.94;4987294;28;20433;-40
2022/03/03 03:04:33;;;;;;;21.63;9.82;;;;;;;18.32;36.68;100835.50;4985230;28;20182;-40
2022/03/03 03:06:59;;;;;;;22.60;10.80;;;;;;;18.32;36.67;100838.94;4986272;28;20037;-41
2022/03/03 03:09:24;;;;;;;18.35;10.07;;;;;;;18.32;36.80;100836.31;4988305;28;20045;-40
2022/03/03 03:11:49;;;;;;;23.17;10.50;;;;;;;18.30;36.64;100825.13;4985760;28;20577;-41
2022/03/03 03:14:15;;;;;;;20.67;9.90;;;;;;;18.31;36.70;100833.84;4987237;28;20026;-40
2022/03/03 03:16:40;;;;;;;22.38;10.00;;;;;;;18.30;36.64;100824.31;4987853;28;20029;-40
2022/03/03 03:19:06;;;;;;;20.52;9.55;;;;;;;18.28;36.73;100821.84;4986432;28;20034;-40
2022/03/03 03:21:31;;;;;;;22.25;9.52;;;;;;;18.27;36.49;100824.69;4986077;28;20042;-40
2022/03/03 03:23:56;;;;;;;15.45;8.50;;;;;;;18.26;36.46;100821.22;4986722;28;20590;-40
2022/03/03 03:26:22;;;;;;;19.02;9.52;;;;;;;18.24;36.48;100816.13;4987892;28;20038;-41
2022/03/03 03:28:47;;;;;;;16.13;8.60;;;;;;;18.24;36.38;100820.59;4986682;28;20295;-40
2022/03/03 03:31:13;;;;;;;18.13;9.00;;;;;;;18.23;36.54;100821.59;4987605;28;20021;-40
2022/03/03 03:33:38;;;;;;;18.02;8.75;;;;;;;18.22;36.56;100818.13;4987449;28;20421;-40
2022/03/03 03:36:04;;;;;;;16.85;8.82;;;;;;;18.21;36.70;100816.50;4986240;28;20042;-40
2022/03/03 03:38:29;;;;;;;16.25;8.25;;;;;;;18.20;36.65;100814.88;4986244;28;20034;-41
2022/03/03 03:40:55;;;;;;;18.10;8.65;;;;;;;18.20;36.65;100820.13;4987796;28;20157;-40
2022/03/03 03:43:20;;;;;;;14.43;7.40;;;;;;;18.19;36.65;100818.50;4986435;28;20053;-40
2022/03/03 03:45:46;;;;;;;15.77;8.07;;;;;;;18.18;36.44;100822.16;4985833;28;20508;-40
2022/03/03 03:48:11;;;;;;;13.32;6.82;;;;;;;18.17;36.60;100812.59;4986860;28;20148;-40
2022/03/03 03:50:36;;;;;;;15.88;7.78;;;;;;;18.16;36.55;100810.97;4986363;28;20065;-40
2022/03/03 03:53:02;;;;;;;15.75;7.78;;;;;;;18.16;36.58;100810.97;4986143;28;20121;-40
2022/03/03 03:55:28;;;;;;;13.43;7.03;;;;;;;18.15;36.59;100811.97;4986426;28;20034;-43
2022/03/03 03:57:53;;;;;;;13.25;7.13;;;;;;;18.14;36.57;100805.06;4987420;28;20057;-40
2022/03/03 04:00:19;;;;;;;13.52;6.97;;;;;;;18.13;36.58;100811.34;4986576;28;20030;-40
2022/03/03 04:02:45;;;;;;;14.75;7.05;;;;;;;18.13;36.54;100805.25;4986657;28;20049;-40
2022/03/03 04:05:12;;;;;;;13.13;6.70;;;;;;;18.13;36.44;100807.88;4986216;28;20041;-40
2022/03/03 04:07:39;;;;;;;11.30;6.47;;;;;;;18.12;36.44;100812.34;4984974;28;20807;-41
2022/03/03 04:10:06;;;;;;;10.55;5.70;;;;;;;18.12;36.26;100801.78;4987223;28;20049;-40
2022/03/03 04:12:31;;;;;;;10.13;6.20;;;;;;;18.13;36.31;100813.16;4986281;28;20405;-40
2022/03/03 04:14:57;;;;;;;10.27;5.25;;;;;;;18.11;36.30;100797.50;4978558;28;20105;-40
2022/03/03 04:17:22;;;;;;;9.85;5.55;;;;;;;18.13;36.30;100795.50;4986269;28;20473;-40
2022/03/03 04:19:48;;;;;;;8.75;5.28;;;;;;;18.11;36.19;100797.50;4986364;28;20037;-40
2022/03/03 04:22:13;;;;;;;9.65;4.93;;;;;;;18.15;36.84;100790.88;4985497;28;20038;-39
2022/03/03 04:24:39;;;;;;;9.02;5.07;;;;;;;18.18;37.08;100792.31;4986200;28;20019;-39
2022/03/03 04:27:04;;;;;;;11.05;5.10;;;;;;;18.18;37.21;100782.59;4986179;28;20084;-39
2022/03/03 04:29:30;;;;;;;9.60;5.05;;;;;;;18.18;37.43;100790.50;4985922;28;20026;-39
2022/03/03 04:31:57;;;;;;;7.55;5.30;;;;;;;18.17;37.37;100780.94;4986397;28;20073;-41
2022/03/03 04:34:25;;;;;;;10.10;5.47;;;;;;;18.18;37.45;100779.94;4985762;28;20046;-39
2022/03/03 04:36:51;;;;;;;9.48;4.75;;;;;;;18.16;37.33;100768.78;4986780;28;20045;-39
2022/03/03 04:39:17;;;;;;;9.93;5.35;;;;;;;18.15;37.31;100769.78;4985560;28;20037;-39
2022/03/03 04:41:42;;;;;;;8.48;4.85;;;;;;;18.16;37.25;100770.59;4986546;28;20369;-39
2022/03/03 04:44:08;;;;;;;7.03;4.53;;;;;;;18.15;37.27;100766.31;4984937;28;20039;-39
2022/03/03 04:46:34;;;;;;;7.57;3.78;;;;;;;18.14;37.28;100764.69;4986611;28;20037;-39
2022/03/03 04:49:01;;;;;;;9.65;4.25;;;;;;;18.14;37.47;100773.41;4985923;28;20042;-39
2022/03/03 04:51:27;;;;;;;9.02;4.47;;;;;;;18.14;37.17;100777.88;4986207;28;20425;-40
2022/03/03 04:53:53;;;;;;;7.80;4.25;;;;;;;18.13;37.20;100779.69;4983046;28;20067;-39
2022/03/03 04:56:18;;;;;;;6.70;3.75;;;;;;;18.11;37.17;100779.06;4985577;28;20084;-39
2022/03/03 04:58:44;;;;;;;8.23;4.35;;;;;;;18.10;37.13;100777.41;4985970;28;20199;-39
2022/03/03 05:01:11;;;;;;;7.18;3.88;;;;;;;18.10;36.82;100769.50;4985329;28;20038;-40
2022/03/03 05:03:36;;;;;;;6.05;3.78;;;;;;;18.07;37.04;100772.53;4985719;28;20034;-39
2022/03/03 05:06:02;;;;;;;6.85;3.50;;;;;;;18.04;37.01;100761.53;4985629;28;20030;-40
2022/03/03 05:08:27;;;;;;;7.05;3.50;;;;;;;18.02;36.91;100764.34;4983681;28;20030;-39
2022/03/03 05:10:53;;;;;;;8.18;4.28;;;;;;;18.00;37.00;100760.25;4986474;28;20092;-39
2022/03/03 05:13:18;;;;;;;5.90;3.08;;;;;;;17.99;37.05;100759.44;4985782;28;20082;-40
2022/03/03 05:15:44;;;;;;;6.57;3.63;;;;;;;18.02;37.10;100761.72;4985276;28;20177;-40
2022/03/03 05:18:09;;;;;;;6.95;3.55;;;;;;;18.04;37.29;100756.25;4984421;28;20026;-40
2022/03/03 05:20:35;;;;;;;8.45;4.72;;;;;;;18.09;38.31;100752.06;4983881;28;20034;-46
2022/03/03 05:23:00;;;;;;;9.60;4.03;;;;;;;18.13;38.27;100755.97;4981412;28;20117;-41
2022/03/03 05:25:26;;;;;;;6.13;3.40;;;;;;;18.15;37.87;100759.22;4985370;28;20038;-41
2022/03/03 05:27:51;;;;;;;5.72;3.67;;;;;;;18.18;37.45;100764.13;4984934;28;20482;-42
2022/03/03 05:30:17;;;;;;;7.40;3.30;;;;;;;18.19;37.21;100759.66;4986366;28;20033;-42
2022/03/03 05:32:43;;;;;;;8.95;3.25;;;;;;;18.22;37.43;100761.94;4986958;28;20386;-41
2022/03/03 05:35:09;;;;;;;21.15;4.35;;;;;;;18.28;38.37;100757.72;4985082;28;20114;-40
2022/03/03 05:37:34;;;;;;;15.77;3.60;;;;;;;18.34;38.44;100754.34;4983368;28;20458;-40
2022/03/03 05:40:01;;;;;;;11.73;3.75;;;;;;;18.37;38.39;100749.53;4982192;28;20034;-40
2022/03/03 05:42:26;;;;;;;10.57;3.90;;;;;;;18.39;38.23;100746.69;4987666;28;20389;-42
2022/03/03 05:44:52;;;;;;;13.25;3.22;;;;;;;18.42;38.10;100748.94;4988266;28;20022;-44
2022/03/03 05:47:19;;;;;;;8.52;3.30;;;;;;;18.43;37.85;100756.66;4984113;28;20030;-41
2022/03/03 05:49:48;;;;;;;6.60;3.88;;;;;;;18.44;37.40;100762.75;4988822;28;20547;-40
2022/03/03 05:52:13;;;;;;;5.25;3.28;;;;;;;18.44;37.25;100762.75;4987415;28;20030;-42
2022/03/03 05:54:40;;;;;;;6.30;2.38;;;;;;;18.45;37.84;100765.19;4988596;28;20027;-41
2022/03/03 05:57:20;;;;;;;7.25;3.00;;;;;;;18.49;38.20;100763.81;4988008;28;20038;-40
2022/03/03 05:59:50;;;;;;;4.25;2.75;;;;;;;18.52;38.06;100759.97;4986021;28;20034;-41
2022/03/03 06:02:18;;;;;;;10.02;2.78;;;;;;;18.55;37.93;100759.59;4987764;28;20038;-42
2022/03/03 06:04:45;;;;;;;4.00;2.08;;;;;;;18.57;37.85;100752.31;4989319;28;20026;-41
2022/03/03 06:07:13;;;;;;;5.07;2.60;;;;;;;18.61;37.81;100758.06;4988353;28;20070;-41
2022/03/03 06:09:40;;;;;;;4.80;2.33;;;;;;;18.64;38.08;100760.31;4988653;28;20043;-40
2022/03/03 06:12:18;;;;;;;7.45;2.58;;;;;;;18.66;37.67;100760.97;4989161;28;20069;-40
2022/03/03 06:14:55;;;;;;;4.22;2.67;;;;;;;18.66;37.70;100761.78;4988115;28;20045;-41
2022/03/03 06:17:24;;;;;;;6.63;3.25;;;;;;;18.69;37.50;100765.84;4987709;28;20053;-40
2022/03/03 06:19:52;;;;;;;4.93;2.30;;;;;;;18.71;37.32;100775.22;4989664;28;20505;-41
2022/03/03 06:22:18;;;;;;;6.57;2.42;;;;;;;18.74;37.52;100774.84;4989151;28;20389;-40
2022/03/03 06:24:43;;;;;;;4.25;2.42;;;;;;;18.78;37.40;100777.91;4987020;28;20038;-40
2022/03/03 06:27:09;;;;;;;8.50;2.70;;;;;;;18.79;37.41;100777.72;4989075;28;20030;-41
2022/03/03 06:29:36;;;;;;;4.35;2.17;;;;;;;18.82;37.24;100781.81;4988795;28;20482;-41
2022/03/03 06:32:02;;;;;;;3.92;2.35;;;;;;;18.83;37.41;100778.16;4982387;28;20031;-40
2022/03/03 06:34:28;;;;;;;3.92;2.40;;;;;;;18.86;37.35;100775.16;4983884;28;20453;-41
2022/03/03 06:36:54;;;;;;;4.65;3.03;;;;;;;18.89;37.15;100769.50;4987555;28;20035;-41
2022/03/03 06:39:19;;;;;;;3.60;2.17;;;;;;;18.90;37.05;100774.53;4987709;28;20480;-40
2022/03/03 06:41:45;;;;;;;4.57;2.55;;;;;;;18.93;36.96;100770.72;4987385;28;20450;-40
2022/03/03 06:44:10;;;;;;;3.70;2.80;;;;;;;18.96;36.95;100777.44;4987763;28;20032;-41
2022/03/03 06:46:36;;;;;;;3.30;1.73;;;;;;;18.99;36.86;100777.06;4988007;28;20030;-41
2022/03/03 06:49:02;;;;;;;6.82;3.03;;;;;;;19.02;36.71;100776.66;4988141;28;20517;-40
2022/03/03 06:51:33;;;;;;;4.15;2.70;;;;;;;19.03;36.65;100776.47;4987425;28;20037;-41
2022/03/03 06:54:02;;;;;;;6.38;2.28;;;;;;;19.05;36.58;100771.81;4985719;28;20049;-40
2022/03/03 06:56:30;;;;;;;3.75;1.90;;;;;;;19.07;36.44;100777.72;4987585;28;20041;-42
2022/03/03 06:58:59;;;;;;;5.97;2.47;;;;;;;19.10;36.38;100773.88;4986640;28;20041;-41
2022/03/03 07:01:29;;;;;;;3.55;2.13;;;;;;;19.13;36.31;100778.78;4984012;28;20105;-41
2022/03/03 07:03:58;;;;;;;3.63;1.90;;;;;;;19.14;36.36;100773.31;4986757;28;20064;-42
2022/03/03 07:06:24;;;;;;;4.10;2.40;;;;;;;19.15;36.38;100772.31;4980255;28;20077;-42
2022/03/03 07:08:54;;;;;;;3.33;2.17;;;;;;;19.15;36.28;100761.75;4986766;28;20054;-41
2022/03/03 07:11:23;;;;;;;3.35;1.90;;;;;;;19.17;36.18;100758.91;4986833;28;20038;-41
2022/03/03 07:13:49;;;;;;;3.95;2.40;;;;;;;19.17;36.25;100774.75;4984783;28;20034;-41
2022/03/03 07:16:22;;;;;;;3.33;1.58;;;;;;;19.16;36.22;100767.84;4982419;28;20650;-42
2022/03/03 07:18:51;;;;;;;7.15;2.40;;;;;;;19.17;36.25;100766.84;4985474;28;20350;-38
2022/03/03 07:21:32;;;;;;;4.68;1.80;;;;;;;19.16;36.38;100765.19;4984982;28;20117;-41
2022/03/03 07:24:15;;;;;;;5.72;2.55;;;;;;;19.17;36.61;100765.00;4985662;28;20038;-42
2022/03/03 07:26:45;;;;;;;6.97;2.30;;;;;;;19.21;36.86;100768.06;4978416;28;20077;-40
2022/03/03 07:29:15;;;;;;;3.97;2.33;;;;;;;19.21;37.23;100770.72;4979933;28;20042;-44
2022/03/03 07:31:50;;;;;;;3.47;1.67;;;;;;;19.19;37.21;100763.00;4987142;28;20023;-40
2022/03/03 07:34:22;;;;;;;3.97;1.80;;;;;;;19.19;37.26;100767.47;4985971;28;20467;-41
2022/03/03 07:36:48;;;;;;;4.50;2.20;;;;;;;19.18;37.31;100760.53;4977429;28;20125;-45
2022/03/03 07:39:16;;;;;;;5.70;2.50;;;;;;;19.20;37.38;100769.09;4986483;28;20289;-40
2022/03/03 07:41:42;;;;;;;2.75;1.40;;;;;;;19.19;37.22;100772.75;4986013;28;20038;-41
2022/03/03 07:44:07;;;;;;;4.72;1.92;;;;;;;19.18;37.45;100777.19;4986235;28;20108;-40
2022/03/03 07:46:33;;;;;;;5.68;2.00;;;;;;;19.18;37.30;100776.38;4986480;28;20072;-41
2022/03/03 07:49:00;;;;;;;4.05;1.90;;;;;;;19.17;37.37;100770.28;4985550;28;20057;-48
2022/03/03 07:51:27;;;;;;;5.45;2.28;;;;;;;19.18;37.69;100768.47;4983497;28;20050;-41
2022/03/03 07:53:53;;;;;;;2.25;1.70;;;;;;;19.18;37.71;100774.56;4984629;28;20034;-41
2022/03/03 07:56:26;;;;;;;2.63;1.75;;;;;;;19.17;37.50;100772.13;4985184;28;20078;-41
2022/03/03 07:59:01;;;;;;;5.10;2.33;;;;;;;19.15;37.50;100771.50;4984329;28;20470;-44
2022/03/03 08:01:28;;;;;;;5.65;1.92;;;;;;;19.13;37.33;100757.66;4993197;28;20034;-41
2022/03/03 08:03:56;;;;;;;4.97;1.80;;;;;;;19.12;37.38;100766.59;4985743;28;20038;-42
2022/03/03 08:06:23;;;;;;;3.22;1.67;;;;;;;19.13;37.28;100773.50;4987256;28;20453;-41
2022/03/03 08:08:50;;;;;;;2.67;1.50;;;;;;;19.12;37.16;100762.13;4979201;28;20080;-43
2022/03/03 08:11:19;;;;;;;5.18;2.08;;;;;;;19.11;37.08;100764.97;4986278;28;20030;-43
2022/03/03 08:13:46;;;;;;;3.28;2.00;;;;;;;19.10;37.23;100760.69;4985076;28;20045;-41
2022/03/03 08:16:12;;;;;;;4.13;1.50;;;;;;;19.08;36.95;100760.88;4987802;28;20096;-42
2022/03/03 08:18:37;;;;;;;4.00;1.98;;;;;;;19.08;37.10;100754.78;4986545;28;20041;-41
2022/03/03 08:21:05;;;;;;;4.28;1.67;;;;;;;19.07;37.02;100753.16;4983018;28;20121;-41
2022/03/03 08:23:32;;;;;;;3.40;1.95;;;;;;;19.06;37.05;100759.44;4984765;28;20033;-41
2022/03/03 08:25:58;;;;;;;3.65;1.77;;;;;;;19.03;37.10;100744.78;4983627;28;20367;-40
2022/03/03 08:28:24;;;;;;;3.92;1.30;;;;;;;19.03;37.13;100754.53;4984578;28;20145;-41
2022/03/03 08:31:01;;;;;;;3.92;1.95;;;;;;;19.00;37.20;100749.63;4982831;28;20114;-41
2022/03/03 08:33:45;;;;;;;4.70;1.85;;;;;;;18.99;37.26;100751.47;4983527;28;20038;-41
2022/03/03 08:36:21;;;;;;;4.68;1.35;;;;;;;18.98;36.77;100752.47;4986536;28;20142;-40
2022/03/03 08:38:51;;;;;;;4.53;1.75;;;;;;;18.97;36.68;100752.66;4985064;28;20105;-41
2022/03/03 08:41:21;;;;;;;4.22;2.15;;;;;;;18.96;36.19;100740.47;4981832;28;20031;-41
2022/03/03 08:43:49;;;;;;;9.57;2.05;;;;;;;18.98;35.84;100743.72;4984389;28;20117;-41
2022/03/03 08:46:19;;;;;;;5.68;2.30;;;;;;;18.98;35.52;100744.53;4986113;28;20431;-43
2022/03/03 08:48:47;;;;;;;11.48;2.30;;;;;;;19.00;35.31;100747.00;4985386;28;20118;-40
2022/03/03 08:51:15;;;;;;;20.20;2.50;;;;;;;18.99;35.14;100745.38;4984592;28;20385;-42
2022/03/03 08:53:41;;;;;;;14.73;2.78;;;;;;;19.00;35.24;100744.34;4985797;28;20040;-40
2022/03/03 08:56:06;;;;;;;26.13;3.42;;;;;;;19.00;35.44;100747.81;4985310;28;20034;-42
2022/03/03 08:58:31;;;;;;;10.57;1.80;;;;;;;19.00;35.54;100739.06;4986755;28;20145;-40
2022/03/03 09:00:57;;;;;;;8.77;2.35;;;;;;;18.96;35.75;100736.00;4984309;28;20035;-41
2022/03/03 09:03:24;;;;;;;8.77;1.75;;;;;;;18.97;36.10;100732.34;4983402;28;20036;-40
2022/03/03 09:05:50;;;;;;;5.03;2.05;;;;;;;19.00;35.85;100731.97;4986005;28;20069;-43
2022/03/03 09:08:16;;;;;;;6.53;2.10;;;;;;;19.03;35.96;100723.66;4982216;28;20038;-42
2022/03/03 09:10:41;;;;;;;5.40;2.17;;;;;;;19.04;36.27;100721.84;4986123;28;20568;-45
2022/03/03 09:13:07;;;;;;;8.27;2.10;;;;;;;19.06;36.25;100725.91;4983972;28;20045;-40
2022/03/03 09:15:33;;;;;;;5.80;2.33;;;;;;;19.08;36.31;100723.09;4984962;28;21275;-40
2022/03/03 09:17:59;;;;;;;5.05;2.13;;;;;;;19.10;36.43;100721.06;4989236;28;20042;-40
2022/03/03 09:20:25;;;;;;;4.50;2.72;;;;;;;19.11;36.39;100712.13;4983329;28;20034;-40
2022/03/03 09:22:50;;;;;;;9.10;2.40;;;;;;;19.10;36.24;100716.59;4989976;28;20354;-40
2022/03/03 09:25:15;;;;;;;5.40;1.77;;;;;;;19.10;35.93;100718.44;4988627;28;20157;-40
2022/03/03 09:27:41;;;;;;;2.97;1.85;;;;;;;19.09;36.35;100716.81;4988960;28;20030;-40
2022/03/03 09:30:09;;;;;;;6.75;2.28;;;;;;;19.09;36.53;100708.88;4989663;28;20046;-39
2022/03/03 09:32:35;;;;;;;3.80;1.63;;;;;;;19.08;36.54;100712.53;4988039;28;20379;-40
2022/03/03 09:35:00;;;;;;;2.70;1.27;;;;;;;19.06;36.63;100710.06;4989449;28;20037;-40
2022/03/03 09:37:26;;;;;;;6.82;2.40;;;;;;;19.04;36.81;100706.81;4989279;28;20186;-40
2022/03/03 09:39:52;;;;;;;5.05;1.77;;;;;;;19.00;36.88;100700.28;4989178;28;20022;-40
2022/03/03 09:42:18;;;;;;;5.13;1.58;;;;;;;18.98;36.91;100696.22;4989646;28;20113;-40
2022/03/03 09:44:44;;;;;;;6.25;1.55;;;;;;;18.96;37.08;100693.75;4989179;28;20030;-39
2022/03/03 09:47:11;;;;;;;3.35;1.55;;;;;;;18.95;37.08;100691.31;4989745;28;20662;-40
2022/03/03 09:49:38;;;;;;;4.35;1.42;;;;;;;18.92;37.19;100689.06;4988709;28;20030;-40
2022/03/03 09:52:15;;;;;;;3.67;1.75;;;;;;;18.88;37.20;100686.84;4989402;28;20088;-40
2022/03/03 09:54:42;;;;;;;3.03;1.20;;;;;;;18.89;37.41;100687.66;4988657;28;20030;-39
2022/03/03 09:57:07;;;;;;;5.95;1.60;;;;;;;18.87;37.55;100674.63;4988638;28;20026;-40
2022/03/03 09:59:33;;;;;;;4.05;1.40;;;;;;;18.86;37.51;100675.66;4986698;28;20025;-40
2022/03/03 10:02:06;;;;;;;3.38;1.17;;;;;;;18.83;37.58;100673.41;4989113;28;20034;-40
2022/03/03 10:04:32;;;;;;;3.75;1.38;;;;;;;18.83;37.61;100675.22;4988826;28;20038;-40
2022/03/03 10:07:03;;;;;;;4.07;1.17;;;;;;;18.81;37.63;100680.69;4988698;28;20121;-39
2022/03/03 10:09:29;;;;;;;4.20;1.38;;;;;;;18.80;37.66;100671.13;4989080;28;20038;-40
2022/03/03 10:12:02;;;;;;;2.42;1.08;;;;;;;18.78;37.37;100667.88;4988459;28;20101;-40
2022/03/03 10:14:30;;;;;;;3.28;1.38;;;;;;;18.78;37.77;100667.88;4989250;28;20030;-40
2022/03/03 10:16:56;;;;;;;4.22;1.45;;;;;;;18.80;37.82;100670.31;4988301;28;20022;-40
2022/03/03 10:19:22;;;;;;;2.05;1.23;;;;;;;18.81;37.75;100664.03;4988780;28;20545;-41
2022/03/03 10:21:48;;;;;;;3.53;1.58;;;;;;;18.81;37.82;100666.69;4988737;28;20122;-40
2022/03/03 10:24:29;;;;;;;3.60;1.70;;;;;;;18.79;37.90;100666.88;4988724;28;20081;-40
2022/03/03 10:26:58;;;;;;;4.13;1.15;;;;;;;18.79;37.88;100658.94;4986880;28;20034;-40
2022/03/03 10:29:25;;;;;;;4.50;1.30;;;;;;;18.79;37.80;100645.75;4988948;28;20035;-40
2022/03/03 10:31:52;;;;;;;1.65;1.35;;;;;;;18.79;37.90;100651.03;4988314;28;20045;-40
2022/03/03 10:34:20;;;;;;;3.40;1.80;;;;;;;18.78;37.83;100644.13;4987173;28;20026;-40
2022/03/03 10:37:05;;;;;;;3.22;1.75;;;;;;;18.75;37.97;100638.41;4986585;28;20441;-40
2022/03/03 10:39:48;;;;;;;2.50;1.83;;;;;;;18.72;38.05;100634.34;4988839;28;20386;-40
2022/03/03 10:42:23;;;;;;;2.25;1.10;;;;;;;18.70;38.05;100638.16;4981433;28;20038;-40
2022/03/03 10:45:04;;;;;;;2.13;1.15;;;;;;;18.70;38.20;100632.91;4987612;28;20034;-40
2022/03/03 10:47:29;;;;;;;2.33;1.15;;;;;;;18.69;38.25;100629.44;4988249;28;20501;-40
2022/03/03 10:49:57;;;;;;;3.90;1.75;;;;;;;18.68;38.27;100621.72;4988288;28;20126;-40
2022/03/03 10:52:25;;;;;;;3.42;1.75;;;;;;;18.68;38.32;100616.44;4988400;28;20026;-40
2022/03/03 10:54:51;;;;;;;2.67;0.95;;;;;;;18.67;38.40;100610.34;4986035;28;20490;-40
2022/03/03 10:57:40;;;;;;;2.38;0.93;;;;;;;18.63;38.46;100609.09;4980340;28;20069;-40
2022/03/03 11:00:25;;;;;;;3.83;1.23;;;;;;;18.65;38.52;100608.91;4988226;28;20026;-40
2022/03/03 11:02:55;;;;;;;2.30;1.08;;;;;;;18.62;38.47;100607.47;4984447;28;20046;-40
2022/03/03 11:05:23;;;;;;;2.33;1.45;;;;;;;18.62;38.35;100596.91;4986255;28;20053;-40
2022/03/03 11:07:50;;;;;;;2.72;1.55;;;;;;;18.64;38.51;100605.44;4987725;28;20425;-41
2022/03/03 11:10:17;;;;;;;2.03;1.30;;;;;;;18.63;38.61;100603.00;4988067;28;20077;-40
2022/03/03 11:12:44;;;;;;;2.25;1.20;;;;;;;18.61;38.51;100595.28;4987914;28;20116;-40
2022/03/03 11:15:10;;;;;;;2.65;1.70;;;;;;;18.62;38.54;100601.38;4987522;28;20158;-41
2022/03/03 11:17:36;;;;;;;2.15;1.60;;;;;;;18.61;38.60;100597.91;4987561;28;20034;-40
2022/03/03 11:20:04;;;;;;;2.85;1.35;;;;;;;18.61;38.67;100581.28;4987879;28;20037;-40
2022/03/03 11:22:31;;;;;;;2.60;1.52;;;;;;;18.60;38.66;100583.09;4970266;28;20038;-40
2022/03/03 11:24:58;;;;;;;2.72;1.20;;;;;;;18.59;38.69;100581.44;4987621;28;20293;-40